sensor_id;sensor_type;location;lat;lon;timestamp;P1;durP1;ratioP1;P2;durP2;ratioP2
64966;SDS011;51710;38.732;-121.358;2023-04-25T00:00:36;6.88;;;1.27;;
64966;SDS011;51710;38.732;-121.358;2023-04-25T00:03:02;7.70;;;1.73;;
64966;SDS011;51710;38.732;-121.358;2023-04-25T00:05:30;5.05;;;1.35;;
64966;SDS011;51710;38.732;-121.358;2023-04-25T00:07:57;7.60;;;2.05;;
64966;SDS011;51710;38.732;-121.358;2023-04-25T00:10:23;6.65;;;1.20;;
64966;SDS011;51710;38.732;-121.358;2023-04-25T00:12:50;3.88;;;1.10;;
64966;SDS011;51710;38.732;-121.358;2023-04-25T00:15:16;2.35;;;0.98;;
64966;SDS011;51710;38.732;-121.358;2023-04-25T00:17:43;2.70;;;1.15;;
64966;SDS011;51710;38.732;-121.358;2023-04-25T00:20:11;9.23;;;1.30;;
64966;SDS011;51710;38.732;-121.358;2023-04-25T00:22:38;3.92;;;1.00;;
64966;SDS011;51710;38.732;-121.358;2023-04-25T00:25:05;3.45;;;1.08;;
64966;SDS011;51710;38.732;-121.358;2023-04-25T00:27:32;5.97;;;1.10;;
64966;SDS011;51710;38.732;-121.358;2023-04-25T00:29:58;2.75;;;1.13;;
64966;SDS011;51710;38.732;-121.358;2023-04-25T00:32:25;8.90;;;1.17;;
64966;SDS011;51710;38.732;-121.358;2023-04-25T00:34:51;3.13;;;1.00;;
64966;SDS011;51710;38.732;-121.358;2023-04-25T00:37:17;2.17;;;0.80;;
64966;SDS011;51710;38.732;-121.358;2023-04-25T00:39:43;5.63;;;0.90;;
64966;SDS011;51710;38.732;-121.358;2023-04-25T00:42:10;3.80;;;1.00;;
64966;SDS011;51710;38.732;-121.358;2023-04-25T00:44:37;5.40;;;1.10;;
64966;SDS011;51710;38.732;-121.358;2023-04-25T00:47:03;3.05;;;1.05;;
64966;SDS011;51710;38.732;-121.358;2023-04-25T00:49:30;7.22;;;1.25;;
64966;SDS011;51710;38.732;-121.358;2023-04-25T00:51:56;4.05;;;0.70;;
64966;SDS011;51710;38.732;-121.358;2023-04-25T00:54:23;2.83;;;0.85;;
64966;SDS011;51710;38.732;-121.358;2023-04-25T00:56:53;2.95;;;1.10;;
64966;SDS011;51710;38.732;-121.358;2023-04-25T00:59:20;5.63;;;1.33;;
64966;SDS011;51710;38.732;-121.358;2023-04-25T01:01:46;4.38;;;1.20;;
64966;SDS011;51710;38.732;-121.358;2023-04-25T01:04:13;4.40;;;1.20;;
64966;SDS011;51710;38.732;-121.358;2023-04-25T01:06:39;3.83;;;0.98;;
64966;SDS011;51710;38.732;-121.358;2023-04-25T01:09:06;5.10;;;1.33;;
64966;SDS011;51710;38.732;-121.358;2023-04-25T01:11:33;4.95;;;0.93;;
64966;SDS011;51710;38.732;-121.358;2023-04-25T01:13:59;2.03;;;1.00;;
64966;SDS011;51710;38.732;-121.358;2023-04-25T01:16:27;2.40;;;0.90;;
64966;SDS011;51710;38.732;-121.358;2023-04-25T01:18:53;2.75;;;1.58;;
64966;SDS011;51710;38.732;-121.358;2023-04-25T01:21:20;1.98;;;0.90;;
64966;SDS011;51710;38.732;-121.358;2023-04-25T01:23:46;3.45;;;1.10;;
64966;SDS011;51710;38.732;-121.358;2023-04-25T01:26:13;3.08;;;0.95;;
64966;SDS011;51710;38.732;-121.358;2023-04-25T01:28:39;1.63;;;0.82;;
64966;SDS011;51710;38.732;-121.358;2023-04-25T01:31:06;4.40;;;0.80;;
64966;SDS011;51710;38.732;-121.358;2023-04-25T01:33:33;3.75;;;0.68;;
64966;SDS011;51710;38.732;-121.358;2023-04-25T01:35:59;3.95;;;0.88;;
64966;SDS011;51710;38.732;-121.358;2023-04-25T01:38:25;2.42;;;1.00;;
64966;SDS011;51710;38.732;-121.358;2023-04-25T01:40:52;3.85;;;1.17;;
64966;SDS011;51710;38.732;-121.358;2023-04-25T01:43:20;2.88;;;1.08;;
64966;SDS011;51710;38.732;-121.358;2023-04-25T01:45:46;3.35;;;0.90;;
64966;SDS011;51710;38.732;-121.358;2023-04-25T01:48:15;3.00;;;1.00;;
64966;SDS011;51710;38.732;-121.358;2023-04-25T01:50:41;4.78;;;0.98;;
64966;SDS011;51710;38.732;-121.358;2023-04-25T01:53:09;3.85;;;1.30;;
64966;SDS011;51710;38.732;-121.358;2023-04-25T01:55:36;5.70;;;1.35;;
64966;SDS011;51710;38.732;-121.358;2023-04-25T01:58:03;4.97;;;1.08;;
64966;SDS011;51710;38.732;-121.358;2023-04-25T02:00:34;4.65;;;1.13;;
64966;SDS011;51710;38.732;-121.358;2023-04-25T02:03:04;2.65;;;1.20;;
64966;SDS011;51710;38.732;-121.358;2023-04-25T02:05:34;2.08;;;1.63;;
64966;SDS011;51710;38.732;-121.358;2023-04-25T02:08:02;2.03;;;1.00;;
64966;SDS011;51710;38.732;-121.358;2023-04-25T02:10:30;3.70;;;0.80;;
64966;SDS011;51710;38.732;-121.358;2023-04-25T02:12:56;1.15;;;0.70;;
64966;SDS011;51710;38.732;-121.358;2023-04-25T02:15:23;1.08;;;0.65;;
64966;SDS011;51710;38.732;-121.358;2023-04-25T02:17:50;2.45;;;0.98;;
64966;SDS011;51710;38.732;-121.358;2023-04-25T02:20:18;2.90;;;0.90;;
64966;SDS011;51710;38.732;-121.358;2023-04-25T02:22:48;2.15;;;0.65;;
64966;SDS011;51710;38.732;-121.358;2023-04-25T02:25:14;2.35;;;1.02;;
64966;SDS011;51710;38.732;-121.358;2023-04-25T02:27:45;1.92;;;0.68;;
64966;SDS011;51710;38.732;-121.358;2023-04-25T02:30:12;2.22;;;0.80;;
64966;SDS011;51710;38.732;-121.358;2023-04-25T02:32:39;3.55;;;0.82;;
64966;SDS011;51710;38.732;-121.358;2023-04-25T02:35:06;0.73;;;0.50;;
64966;SDS011;51710;38.732;-121.358;2023-04-25T02:37:33;2.30;;;0.80;;
64966;SDS011;51710;38.732;-121.358;2023-04-25T02:40:01;3.47;;;1.13;;
64966;SDS011;51710;38.732;-121.358;2023-04-25T02:42:29;1.42;;;0.70;;
64966;SDS011;51710;38.732;-121.358;2023-04-25T02:44:55;1.83;;;0.70;;
64966;SDS011;51710;38.732;-121.358;2023-04-25T02:47:21;2.65;;;0.60;;
64966;SDS011;51710;38.732;-121.358;2023-04-25T02:49:47;2.63;;;0.63;;
64966;SDS011;51710;38.732;-121.358;2023-04-25T02:52:14;1.50;;;0.80;;
64966;SDS011;51710;38.732;-121.358;2023-04-25T02:54:40;1.90;;;0.90;;
64966;SDS011;51710;38.732;-121.358;2023-04-25T02:57:07;2.60;;;0.88;;
64966;SDS011;51710;38.732;-121.358;2023-04-25T02:59:33;4.70;;;1.20;;
64966;SDS011;51710;38.732;-121.358;2023-04-25T03:02:00;1.42;;;0.75;;
64966;SDS011;51710;38.732;-121.358;2023-04-25T03:04:26;7.22;;;3.88;;
64966;SDS011;51710;38.732;-121.358;2023-04-25T03:06:53;4.93;;;2.10;;
64966;SDS011;51710;38.732;-121.358;2023-04-25T03:09:20;4.47;;;1.33;;
64966;SDS011;51710;38.732;-121.358;2023-04-25T03:11:46;5.90;;;2.38;;
64966;SDS011;51710;38.732;-121.358;2023-04-25T03:14:13;20.30;;;9.65;;
64966;SDS011;51710;38.732;-121.358;2023-04-25T03:16:39;13.07;;;7.30;;
64966;SDS011;51710;38.732;-121.358;2023-04-25T03:19:05;14.40;;;7.60;;
64966;SDS011;51710;38.732;-121.358;2023-04-25T03:21:32;15.93;;;7.70;;
64966;SDS011;51710;38.732;-121.358;2023-04-25T03:24:00;13.73;;;5.85;;
64966;SDS011;51710;38.732;-121.358;2023-04-25T03:26:28;13.07;;;4.70;;
64966;SDS011;51710;38.732;-121.358;2023-04-25T03:28:54;5.88;;;2.75;;
64966;SDS011;51710;38.732;-121.358;2023-04-25T03:31:20;8.35;;;2.17;;
64966;SDS011;51710;38.732;-121.358;2023-04-25T03:33:47;9.35;;;2.22;;
64966;SDS011;51710;38.732;-121.358;2023-04-25T03:36:14;4.32;;;1.63;;
64966;SDS011;51710;38.732;-121.358;2023-04-25T03:38:40;6.35;;;1.70;;
64966;SDS011;51710;38.732;-121.358;2023-04-25T03:41:09;8.95;;;1.70;;
64966;SDS011;51710;38.732;-121.358;2023-04-25T03:43:35;7.57;;;2.03;;
64966;SDS011;51710;38.732;-121.358;2023-04-25T03:46:01;6.95;;;1.40;;
64966;SDS011;51710;38.732;-121.358;2023-04-25T03:48:27;3.20;;;1.30;;
64966;SDS011;51710;38.732;-121.358;2023-04-25T03:50:54;4.35;;;1.40;;
64966;SDS011;51710;38.732;-121.358;2023-04-25T03:53:20;5.28;;;1.75;;
64966;SDS011;51710;38.732;-121.358;2023-04-25T03:55:46;5.47;;;1.85;;
64966;SDS011;51710;38.732;-121.358;2023-04-25T03:58:13;6.45;;;2.10;;
64966;SDS011;51710;38.732;-121.358;2023-04-25T04:00:39;7.20;;;2.33;;
64966;SDS011;51710;38.732;-121.358;2023-04-25T04:03:05;7.78;;;2.05;;
64966;SDS011;51710;38.732;-121.358;2023-04-25T04:05:31;6.05;;;1.75;;
64966;SDS011;51710;38.732;-121.358;2023-04-25T04:07:58;6.53;;;1.88;;
64966;SDS011;51710;38.732;-121.358;2023-04-25T04:10:24;8.18;;;2.60;;
64966;SDS011;51710;38.732;-121.358;2023-04-25T04:12:51;8.55;;;2.30;;
64966;SDS011;51710;38.732;-121.358;2023-04-25T04:15:17;7.65;;;2.10;;
64966;SDS011;51710;38.732;-121.358;2023-04-25T04:17:44;9.27;;;2.38;;
64966;SDS011;51710;38.732;-121.358;2023-04-25T04:20:10;8.13;;;2.67;;
64966;SDS011;51710;38.732;-121.358;2023-04-25T04:22:36;5.80;;;2.50;;
64966;SDS011;51710;38.732;-121.358;2023-04-25T04:25:03;6.35;;;2.40;;
64966;SDS011;51710;38.732;-121.358;2023-04-25T04:27:32;7.72;;;2.92;;
64966;SDS011;51710;38.732;-121.358;2023-04-25T04:29:58;8.30;;;2.30;;
64966;SDS011;51710;38.732;-121.358;2023-04-25T04:32:24;7.25;;;1.52;;
64966;SDS011;51710;38.732;-121.358;2023-04-25T04:34:50;6.47;;;2.58;;
64966;SDS011;51710;38.732;-121.358;2023-04-25T04:37:17;6.90;;;2.40;;
64966;SDS011;51710;38.732;-121.358;2023-04-25T04:39:44;6.70;;;2.67;;
64966;SDS011;51710;38.732;-121.358;2023-04-25T04:42:10;6.60;;;2.42;;
64966;SDS011;51710;38.732;-121.358;2023-04-25T04:44:37;8.95;;;2.33;;
64966;SDS011;51710;38.732;-121.358;2023-04-25T04:47:04;7.07;;;2.20;;
64966;SDS011;51710;38.732;-121.358;2023-04-25T04:49:32;7.20;;;2.60;;
64966;SDS011;51710;38.732;-121.358;2023-04-25T04:51:59;8.52;;;2.20;;
64966;SDS011;51710;38.732;-121.358;2023-04-25T04:54:26;8.20;;;2.50;;
64966;SDS011;51710;38.732;-121.358;2023-04-25T04:56:52;6.68;;;1.90;;
64966;SDS011;51710;38.732;-121.358;2023-04-25T04:59:18;9.18;;;3.10;;
64966;SDS011;51710;38.732;-121.358;2023-04-25T05:01:44;9.13;;;2.42;;
64966;SDS011;51710;38.732;-121.358;2023-04-25T05:04:12;6.60;;;1.90;;
64966;SDS011;51710;38.732;-121.358;2023-04-25T05:06:38;8.63;;;2.03;;
64966;SDS011;51710;38.732;-121.358;2023-04-25T05:09:04;8.10;;;2.38;;
64966;SDS011;51710;38.732;-121.358;2023-04-25T05:11:31;7.00;;;2.38;;
64966;SDS011;51710;38.732;-121.358;2023-04-25T05:13:57;5.70;;;2.10;;
64966;SDS011;51710;38.732;-121.358;2023-04-25T05:16:23;13.75;;;3.45;;
64966;SDS011;51710;38.732;-121.358;2023-04-25T05:18:49;8.52;;;2.50;;
64966;SDS011;51710;38.732;-121.358;2023-04-25T05:21:15;8.45;;;2.88;;
64966;SDS011;51710;38.732;-121.358;2023-04-25T05:23:42;10.38;;;2.75;;
64966;SDS011;51710;38.732;-121.358;2023-04-25T05:26:08;6.65;;;2.35;;
64966;SDS011;51710;38.732;-121.358;2023-04-25T05:28:41;14.57;;;2.97;;
64966;SDS011;51710;38.732;-121.358;2023-04-25T05:31:07;14.63;;;3.05;;
64966;SDS011;51710;38.732;-121.358;2023-04-25T05:33:35;8.65;;;2.72;;
64966;SDS011;51710;38.732;-121.358;2023-04-25T05:36:02;9.43;;;3.30;;
64966;SDS011;51710;38.732;-121.358;2023-04-25T05:38:28;15.77;;;3.05;;
64966;SDS011;51710;38.732;-121.358;2023-04-25T05:40:55;10.05;;;2.83;;
64966;SDS011;51710;38.732;-121.358;2023-04-25T05:43:21;7.85;;;2.70;;
64966;SDS011;51710;38.732;-121.358;2023-04-25T05:45:47;7.35;;;2.47;;
64966;SDS011;51710;38.732;-121.358;2023-04-25T05:48:13;10.55;;;2.95;;
64966;SDS011;51710;38.732;-121.358;2023-04-25T05:50:39;8.27;;;2.80;;
64966;SDS011;51710;38.732;-121.358;2023-04-25T05:53:06;8.40;;;3.08;;
64966;SDS011;51710;38.732;-121.358;2023-04-25T05:55:32;9.18;;;2.40;;
64966;SDS011;51710;38.732;-121.358;2023-04-25T05:57:58;10.45;;;2.50;;
64966;SDS011;51710;38.732;-121.358;2023-04-25T06:00:25;8.15;;;2.17;;
64966;SDS011;51710;38.732;-121.358;2023-04-25T06:02:51;8.75;;;2.88;;
64966;SDS011;51710;38.732;-121.358;2023-04-25T06:05:17;7.75;;;2.40;;
64966;SDS011;51710;38.732;-121.358;2023-04-25T06:07:43;10.60;;;2.53;;
64966;SDS011;51710;38.732;-121.358;2023-04-25T06:10:10;11.65;;;2.75;;
64966;SDS011;51710;38.732;-121.358;2023-04-25T06:12:36;9.70;;;2.55;;
64966;SDS011;51710;38.732;-121.358;2023-04-25T06:15:04;8.25;;;2.13;;
64966;SDS011;51710;38.732;-121.358;2023-04-25T06:17:31;7.43;;;2.20;;
64966;SDS011;51710;38.732;-121.358;2023-04-25T06:19:57;10.52;;;2.65;;
64966;SDS011;51710;38.732;-121.358;2023-04-25T06:22:23;8.85;;;2.60;;
64966;SDS011;51710;38.732;-121.358;2023-04-25T06:24:49;8.85;;;2.78;;
64966;SDS011;51710;38.732;-121.358;2023-04-25T06:27:15;10.23;;;3.20;;
64966;SDS011;51710;38.732;-121.358;2023-04-25T06:29:42;8.52;;;2.63;;
64966;SDS011;51710;38.732;-121.358;2023-04-25T06:32:08;12.27;;;2.60;;
64966;SDS011;51710;38.732;-121.358;2023-04-25T06:34:34;10.40;;;2.85;;
64966;SDS011;51710;38.732;-121.358;2023-04-25T06:37:00;8.98;;;2.60;;
64966;SDS011;51710;38.732;-121.358;2023-04-25T06:39:27;9.77;;;3.72;;
64966;SDS011;51710;38.732;-121.358;2023-04-25T06:41:53;9.02;;;2.25;;
64966;SDS011;51710;38.732;-121.358;2023-04-25T06:44:19;9.52;;;2.83;;
64966;SDS011;51710;38.732;-121.358;2023-04-25T06:46:48;12.65;;;3.20;;
64966;SDS011;51710;38.732;-121.358;2023-04-25T06:49:14;10.43;;;2.65;;
64966;SDS011;51710;38.732;-121.358;2023-04-25T06:51:40;9.15;;;2.40;;
64966;SDS011;51710;38.732;-121.358;2023-04-25T06:54:07;9.60;;;2.47;;
64966;SDS011;51710;38.732;-121.358;2023-04-25T06:56:33;12.18;;;3.47;;
64966;SDS011;51710;38.732;-121.358;2023-04-25T06:58:59;11.13;;;3.40;;
64966;SDS011;51710;38.732;-121.358;2023-04-25T07:01:26;7.47;;;2.78;;
64966;SDS011;51710;38.732;-121.358;2023-04-25T07:03:52;10.52;;;3.15;;
64966;SDS011;51710;38.732;-121.358;2023-04-25T07:06:18;7.07;;;2.45;;
64966;SDS011;51710;38.732;-121.358;2023-04-25T07:08:44;11.20;;;3.35;;
64966;SDS011;51710;38.732;-121.358;2023-04-25T07:11:11;10.15;;;2.60;;
64966;SDS011;51710;38.732;-121.358;2023-04-25T07:13:37;7.90;;;2.80;;
64966;SDS011;51710;38.732;-121.358;2023-04-25T07:16:03;9.82;;;3.17;;
64966;SDS011;51710;38.732;-121.358;2023-04-25T07:18:30;11.25;;;2.70;;
64966;SDS011;51710;38.732;-121.358;2023-04-25T07:20:56;9.80;;;2.75;;
64966;SDS011;51710;38.732;-121.358;2023-04-25T07:23:22;7.25;;;2.38;;
64966;SDS011;51710;38.732;-121.358;2023-04-25T07:25:49;10.55;;;2.90;;
64966;SDS011;51710;38.732;-121.358;2023-04-25T07:28:15;8.38;;;2.65;;
64966;SDS011;51710;38.732;-121.358;2023-04-25T07:30:41;10.35;;;3.13;;
64966;SDS011;51710;38.732;-121.358;2023-04-25T07:33:07;10.32;;;2.67;;
64966;SDS011;51710;38.732;-121.358;2023-04-25T07:35:34;6.25;;;2.20;;
64966;SDS011;51710;38.732;-121.358;2023-04-25T07:38:01;6.65;;;2.33;;
64966;SDS011;51710;38.732;-121.358;2023-04-25T07:40:28;9.45;;;2.58;;
64966;SDS011;51710;38.732;-121.358;2023-04-25T07:42:55;8.85;;;2.50;;
64966;SDS011;51710;38.732;-121.358;2023-04-25T07:45:21;9.77;;;2.90;;
64966;SDS011;51710;38.732;-121.358;2023-04-25T07:47:48;7.40;;;2.25;;
64966;SDS011;51710;38.732;-121.358;2023-04-25T07:50:15;9.68;;;2.38;;
64966;SDS011;51710;38.732;-121.358;2023-04-25T07:52:41;8.23;;;2.88;;
64966;SDS011;51710;38.732;-121.358;2023-04-25T07:55:10;7.10;;;2.08;;
64966;SDS011;51710;38.732;-121.358;2023-04-25T07:57:36;12.38;;;2.63;;
64966;SDS011;51710;38.732;-121.358;2023-04-25T08:00:03;11.43;;;2.20;;
64966;SDS011;51710;38.732;-121.358;2023-04-25T08:02:35;8.57;;;2.45;;
64966;SDS011;51710;38.732;-121.358;2023-04-25T08:05:02;11.32;;;2.47;;
64966;SDS011;51710;38.732;-121.358;2023-04-25T08:07:28;9.00;;;2.47;;
64966;SDS011;51710;38.732;-121.358;2023-04-25T08:09:54;7.55;;;2.15;;
64966;SDS011;51710;38.732;-121.358;2023-04-25T08:12:21;8.70;;;2.72;;
64966;SDS011;51710;38.732;-121.358;2023-04-25T08:14:47;9.93;;;2.70;;
64966;SDS011;51710;38.732;-121.358;2023-04-25T08:17:13;15.95;;;2.53;;
64966;SDS011;51710;38.732;-121.358;2023-04-25T08:19:39;11.35;;;2.80;;
64966;SDS011;51710;38.732;-121.358;2023-04-25T08:22:05;12.40;;;3.05;;
64966;SDS011;51710;38.732;-121.358;2023-04-25T08:24:32;7.38;;;2.33;;
64966;SDS011;51710;38.732;-121.358;2023-04-25T08:26:58;6.00;;;2.08;;
64966;SDS011;51710;38.732;-121.358;2023-04-25T08:29:24;9.32;;;2.28;;
64966;SDS011;51710;38.732;-121.358;2023-04-25T08:31:51;10.35;;;3.45;;
64966;SDS011;51710;38.732;-121.358;2023-04-25T08:34:18;12.85;;;3.15;;
64966;SDS011;51710;38.732;-121.358;2023-04-25T08:36:45;8.40;;;2.33;;
64966;SDS011;51710;38.732;-121.358;2023-04-25T08:39:11;7.55;;;2.63;;
64966;SDS011;51710;38.732;-121.358;2023-04-25T08:41:38;11.65;;;2.83;;
64966;SDS011;51710;38.732;-121.358;2023-04-25T08:44:06;7.65;;;2.45;;
64966;SDS011;51710;38.732;-121.358;2023-04-25T08:46:40;13.30;;;3.03;;
64966;SDS011;51710;38.732;-121.358;2023-04-25T08:49:07;10.63;;;2.55;;
64966;SDS011;51710;38.732;-121.358;2023-04-25T08:51:39;9.52;;;2.80;;
64966;SDS011;51710;38.732;-121.358;2023-04-25T08:54:13;9.63;;;3.00;;
64966;SDS011;51710;38.732;-121.358;2023-04-25T08:56:40;7.40;;;2.60;;
64966;SDS011;51710;38.732;-121.358;2023-04-25T08:59:11;7.72;;;2.50;;
64966;SDS011;51710;38.732;-121.358;2023-04-25T09:01:38;7.93;;;2.88;;
64966;SDS011;51710;38.732;-121.358;2023-04-25T09:04:04;11.32;;;3.20;;
64966;SDS011;51710;38.732;-121.358;2023-04-25T09:06:31;9.00;;;2.67;;
64966;SDS011;51710;38.732;-121.358;2023-04-25T09:09:06;12.65;;;2.75;;
64966;SDS011;51710;38.732;-121.358;2023-04-25T09:11:34;6.93;;;2.47;;
64966;SDS011;51710;38.732;-121.358;2023-04-25T09:19:35;6.45;;;2.83;;
64966;SDS011;51710;38.732;-121.358;2023-04-25T09:22:05;6.97;;;2.75;;
64966;SDS011;51710;38.732;-121.358;2023-04-25T09:27:03;9.50;;;2.88;;
64966;SDS011;51710;38.732;-121.358;2023-04-25T09:29:31;7.60;;;2.60;;
64966;SDS011;51710;38.732;-121.358;2023-04-25T09:32:16;13.45;;;3.42;;
64966;SDS011;51710;38.732;-121.358;2023-04-25T09:34:47;9.52;;;2.95;;
64966;SDS011;51710;38.732;-121.358;2023-04-25T09:37:19;10.48;;;3.42;;
64966;SDS011;51710;38.732;-121.358;2023-04-25T09:39:52;12.30;;;3.22;;
64966;SDS011;51710;38.732;-121.358;2023-04-25T09:42:23;11.20;;;3.60;;
64966;SDS011;51710;38.732;-121.358;2023-04-25T09:44:53;9.88;;;3.67;;
64966;SDS011;51710;38.732;-121.358;2023-04-25T09:47:21;10.50;;;3.47;;
64966;SDS011;51710;38.732;-121.358;2023-04-25T09:49:49;9.82;;;2.67;;
64966;SDS011;51710;38.732;-121.358;2023-04-25T09:52:17;12.48;;;3.05;;
64966;SDS011;51710;38.732;-121.358;2023-04-25T09:54:48;8.38;;;2.95;;
64966;SDS011;51710;38.732;-121.358;2023-04-25T09:57:16;11.02;;;3.70;;
64966;SDS011;51710;38.732;-121.358;2023-04-25T09:59:46;11.60;;;3.50;;
64966;SDS011;51710;38.732;-121.358;2023-04-25T10:02:24;10.00;;;2.65;;
64966;SDS011;51710;38.732;-121.358;2023-04-25T10:04:52;11.93;;;2.95;;
64966;SDS011;51710;38.732;-121.358;2023-04-25T10:07:22;8.18;;;3.13;;
64966;SDS011;51710;38.732;-121.358;2023-04-25T10:09:54;10.32;;;2.78;;
64966;SDS011;51710;38.732;-121.358;2023-04-25T10:12:32;8.90;;;3.03;;
64966;SDS011;51710;38.732;-121.358;2023-04-25T10:14:59;6.80;;;2.50;;
64966;SDS011;51710;38.732;-121.358;2023-04-25T10:17:26;13.25;;;2.80;;
64966;SDS011;51710;38.732;-121.358;2023-04-25T10:19:53;11.18;;;4.03;;
64966;SDS011;51710;38.732;-121.358;2023-04-25T10:22:23;10.95;;;2.65;;
64966;SDS011;51710;38.732;-121.358;2023-04-25T10:24:52;5.95;;;2.78;;
64966;SDS011;51710;38.732;-121.358;2023-04-25T10:27:18;6.95;;;2.60;;
64966;SDS011;51710;38.732;-121.358;2023-04-25T10:29:44;7.70;;;2.63;;
64966;SDS011;51710;38.732;-121.358;2023-04-25T10:32:25;7.53;;;3.10;;
64966;SDS011;51710;38.732;-121.358;2023-04-25T10:34:53;6.97;;;2.80;;
64966;SDS011;51710;38.732;-121.358;2023-04-25T10:37:20;9.20;;;2.53;;
64966;SDS011;51710;38.732;-121.358;2023-04-25T10:39:46;8.82;;;2.42;;
64966;SDS011;51710;38.732;-121.358;2023-04-25T10:42:12;12.57;;;4.22;;
64966;SDS011;51710;38.732;-121.358;2023-04-25T10:44:39;8.75;;;2.72;;
64966;SDS011;51710;38.732;-121.358;2023-04-25T10:47:06;5.97;;;2.90;;
64966;SDS011;51710;38.732;-121.358;2023-04-25T10:49:35;12.27;;;4.30;;
64966;SDS011;51710;38.732;-121.358;2023-04-25T10:52:12;5.85;;;2.80;;
64966;SDS011;51710;38.732;-121.358;2023-04-25T10:57:31;6.05;;;2.17;;
64966;SDS011;51710;38.732;-121.358;2023-04-25T11:00:14;16.55;;;6.40;;
64966;SDS011;51710;38.732;-121.358;2023-04-25T11:02:46;9.65;;;4.90;;
64966;SDS011;51710;38.732;-121.358;2023-04-25T11:05:36;6.50;;;2.38;;
64966;SDS011;51710;38.732;-121.358;2023-04-25T11:08:09;11.35;;;3.00;;
64966;SDS011;51710;38.732;-121.358;2023-04-25T11:10:37;7.15;;;2.90;;
64966;SDS011;51710;38.732;-121.358;2023-04-25T11:13:05;8.88;;;2.55;;
64966;SDS011;51710;38.732;-121.358;2023-04-25T11:15:32;6.57;;;3.20;;
64966;SDS011;51710;38.732;-121.358;2023-04-25T11:17:58;11.10;;;2.67;;
64966;SDS011;51710;38.732;-121.358;2023-04-25T11:20:25;8.60;;;2.88;;
64966;SDS011;51710;38.732;-121.358;2023-04-25T11:22:53;10.10;;;2.55;;
64966;SDS011;51710;38.732;-121.358;2023-04-25T11:25:26;7.45;;;2.75;;
64966;SDS011;51710;38.732;-121.358;2023-04-25T11:27:54;6.45;;;2.42;;
64966;SDS011;51710;38.732;-121.358;2023-04-25T11:30:26;10.05;;;2.63;;
64966;SDS011;51710;38.732;-121.358;2023-04-25T11:32:56;11.52;;;2.95;;
64966;SDS011;51710;38.732;-121.358;2023-04-25T11:35:22;13.88;;;5.43;;
64966;SDS011;51710;38.732;-121.358;2023-04-25T11:37:50;17.17;;;6.15;;
64966;SDS011;51710;38.732;-121.358;2023-04-25T11:40:16;12.40;;;4.47;;
64966;SDS011;51710;38.732;-121.358;2023-04-25T11:42:43;8.40;;;3.20;;
64966;SDS011;51710;38.732;-121.358;2023-04-25T11:45:11;10.48;;;3.03;;
64966;SDS011;51710;38.732;-121.358;2023-04-25T11:47:39;11.30;;;3.65;;
64966;SDS011;51710;38.732;-121.358;2023-04-25T11:50:06;10.88;;;3.05;;
64966;SDS011;51710;38.732;-121.358;2023-04-25T11:52:37;10.77;;;3.20;;
64966;SDS011;51710;38.732;-121.358;2023-04-25T11:55:08;8.73;;;3.03;;
64966;SDS011;51710;38.732;-121.358;2023-04-25T11:57:42;9.70;;;3.00;;
64966;SDS011;51710;38.732;-121.358;2023-04-25T12:00:16;8.68;;;3.20;;
64966;SDS011;51710;38.732;-121.358;2023-04-25T12:02:46;8.65;;;3.42;;
64966;SDS011;51710;38.732;-121.358;2023-04-25T12:05:14;9.50;;;2.88;;
64966;SDS011;51710;38.732;-121.358;2023-04-25T12:07:41;12.07;;;2.97;;
64966;SDS011;51710;38.732;-121.358;2023-04-25T12:10:08;5.93;;;2.45;;
64966;SDS011;51710;38.732;-121.358;2023-04-25T12:12:37;10.82;;;3.13;;
64966;SDS011;51710;38.732;-121.358;2023-04-25T12:15:10;8.65;;;3.05;;
64966;SDS011;51710;38.732;-121.358;2023-04-25T12:17:41;11.43;;;3.65;;
64966;SDS011;51710;38.732;-121.358;2023-04-25T12:20:12;12.68;;;2.92;;
64966;SDS011;51710;38.732;-121.358;2023-04-25T12:22:40;12.88;;;3.10;;
64966;SDS011;51710;38.732;-121.358;2023-04-25T12:33:18;11.75;;;3.13;;
64966;SDS011;51710;38.732;-121.358;2023-04-25T12:35:45;7.60;;;2.72;;
64966;SDS011;51710;38.732;-121.358;2023-04-25T12:38:11;8.82;;;2.60;;
64966;SDS011;51710;38.732;-121.358;2023-04-25T12:40:45;7.55;;;2.30;;
64966;SDS011;51710;38.732;-121.358;2023-04-25T12:43:11;7.15;;;2.72;;
64966;SDS011;51710;38.732;-121.358;2023-04-25T12:45:38;9.10;;;2.72;;
64966;SDS011;51710;38.732;-121.358;2023-04-25T12:48:05;7.50;;;2.70;;
64966;SDS011;51710;38.732;-121.358;2023-04-25T12:50:31;13.00;;;3.58;;
64966;SDS011;51710;38.732;-121.358;2023-04-25T12:52:57;9.93;;;3.40;;
64966;SDS011;51710;38.732;-121.358;2023-04-25T12:55:23;9.07;;;2.95;;
64966;SDS011;51710;38.732;-121.358;2023-04-25T12:57:50;10.82;;;2.80;;
64966;SDS011;51710;38.732;-121.358;2023-04-25T13:00:16;7.07;;;2.80;;
64966;SDS011;51710;38.732;-121.358;2023-04-25T13:02:45;8.65;;;2.50;;
64966;SDS011;51710;38.732;-121.358;2023-04-25T13:05:14;5.93;;;2.50;;
64966;SDS011;51710;38.732;-121.358;2023-04-25T13:07:41;6.05;;;2.40;;
64966;SDS011;51710;38.732;-121.358;2023-04-25T13:10:07;5.97;;;2.70;;
64966;SDS011;51710;38.732;-121.358;2023-04-25T13:12:33;7.50;;;3.13;;
64966;SDS011;51710;38.732;-121.358;2023-04-25T13:15:00;5.18;;;2.80;;
64966;SDS011;51710;38.732;-121.358;2023-04-25T13:17:26;6.35;;;2.33;;
64966;SDS011;51710;38.732;-121.358;2023-04-25T13:19:52;8.02;;;2.20;;
64966;SDS011;51710;38.732;-121.358;2023-04-25T13:22:18;5.35;;;2.35;;
64966;SDS011;51710;38.732;-121.358;2023-04-25T13:24:45;7.05;;;2.50;;
64966;SDS011;51710;38.732;-121.358;2023-04-25T13:27:12;11.30;;;2.47;;
64966;SDS011;51710;38.732;-121.358;2023-04-25T13:29:39;9.40;;;2.20;;
64966;SDS011;51710;38.732;-121.358;2023-04-25T13:32:06;3.63;;;1.95;;
64966;SDS011;51710;38.732;-121.358;2023-04-25T13:34:33;8.25;;;2.22;;
64966;SDS011;51710;38.732;-121.358;2023-04-25T13:36:59;9.63;;;2.17;;
64966;SDS011;51710;38.732;-121.358;2023-04-25T13:39:26;5.10;;;2.17;;
64966;SDS011;51710;38.732;-121.358;2023-04-25T13:41:52;5.03;;;2.42;;
64966;SDS011;51710;38.732;-121.358;2023-04-25T13:44:18;4.15;;;1.85;;
64966;SDS011;51710;38.732;-121.358;2023-04-25T13:46:44;3.97;;;1.77;;
64966;SDS011;51710;38.732;-121.358;2023-04-25T13:49:11;6.03;;;2.13;;
64966;SDS011;51710;38.732;-121.358;2023-04-25T13:51:37;5.22;;;2.10;;
64966;SDS011;51710;38.732;-121.358;2023-04-25T13:54:04;4.68;;;1.65;;
64966;SDS011;51710;38.732;-121.358;2023-04-25T13:56:30;5.07;;;2.05;;
64966;SDS011;51710;38.732;-121.358;2023-04-25T13:58:56;4.90;;;2.78;;
64966;SDS011;51710;38.732;-121.358;2023-04-25T14:01:23;5.93;;;1.92;;
64966;SDS011;51710;38.732;-121.358;2023-04-25T14:03:49;5.65;;;2.33;;
64966;SDS011;51710;38.732;-121.358;2023-04-25T14:06:15;8.95;;;2.22;;
64966;SDS011;51710;38.732;-121.358;2023-04-25T14:08:48;5.60;;;2.20;;
64966;SDS011;51710;38.732;-121.358;2023-04-25T14:11:15;6.20;;;2.30;;
64966;SDS011;51710;38.732;-121.358;2023-04-25T14:13:43;5.13;;;1.80;;
64966;SDS011;51710;38.732;-121.358;2023-04-25T14:16:10;9.77;;;1.90;;
64966;SDS011;51710;38.732;-121.358;2023-04-25T14:18:36;4.82;;;2.10;;
64966;SDS011;51710;38.732;-121.358;2023-04-25T14:21:03;3.55;;;1.85;;
64966;SDS011;51710;38.732;-121.358;2023-04-25T14:23:30;3.78;;;1.83;;
64966;SDS011;51710;38.732;-121.358;2023-04-25T14:25:56;6.78;;;1.73;;